Time;durP1;ratioP1;P1;durP2;ratioP2;P2;SDS_P1;SDS_P2;PMS_P1;PMS_P2;Temp;Humidity;BMP_temperature;BMP_pressure;BME280_temperature;BME280_humidity;BME280_pressure;Samples;Min_cycle;Max_cycle;Signal;HPM_P1;HPM_P2
2023/09/11 00:02:10;;;;;;;7.40;5.00;;;18.40;94.70;;;;;;4988551;28;20485;-64
2023/09/11 00:04:36;;;;;;;12.10;4.53;;;18.40;94.80;;;;;;4989299;28;21285;-65
2023/09/11 00:07:03;;;;;;;10.03;5.00;;;18.40;94.80;;;;;;4983724;28;20478;-64
2023/09/11 00:09:33;;;;;;;5.30;4.33;;;18.30;95.20;;;;;;4981414;28;20993;-65
2023/09/11 00:11:59;;;;;;;8.43;3.80;;;18.30;95.40;;;;;;4987672;28;20877;-64
2023/09/11 00:14:26;;;;;;;7.67;3.80;;;18.30;95.40;;;;;;4987538;28;20486;-64
2023/09/11 00:16:53;;;;;;;6.00;4.47;;;18.30;95.20;;;;;;4969173;28;20858;-64
2023/09/11 00:19:21;;;;;;;7.17;4.20;;;18.20;94.90;;;;;;4984961;28;20478;-64
2023/09/11 00:21:47;;;;;;;10.63;4.30;;;18.20;95.00;;;;;;4998704;28;20485;-63
2023/09/11 00:24:14;;;;;;;10.37;4.60;;;18.10;95.00;;;;;;4986090;28;20478;-62
2023/09/11 00:26:41;;;;;;;7.80;4.33;;;18.10;95.00;;;;;;4989569;28;20473;-62
2023/09/11 00:29:07;;;;;;;7.03;3.90;;;18.10;94.90;;;;;;4990121;28;20466;-61
2023/09/11 00:31:34;;;;;;;5.20;4.50;;;18.10;94.80;;;;;;4965301;28;20473;-63
2023/09/11 00:34:01;;;;;;;6.77;3.97;;;18.10;95.30;;;;;;4997030;28;20493;-62
2023/09/11 00:36:29;;;;;;;7.23;4.23;;;18.10;95.10;;;;;;4996015;28;20469;-62
2023/09/11 00:38:55;;;;;;;6.33;4.60;;;18.10;94.90;;;;;;4987222;28;20482;-63
2023/09/11 00:41:22;;;;;;;12.23;4.10;;;18.00;94.80;;;;;;4990709;28;20490;-62
2023/09/11 00:43:49;;;;;;;7.00;4.07;;;18.10;94.70;;;;;;4989152;28;20670;-63
2023/09/11 00:46:16;;;;;;;9.70;3.90;;;18.00;94.90;;;;;;4988152;28;20474;-63
2023/09/11 00:48:43;;;;;;;7.53;5.10;;;18.10;95.00;;;;;;4974549;28;20476;-62
2023/09/11 00:51:10;;;;;;;6.57;4.63;;;18.00;94.80;;;;;;4984397;28;20880;-63
2023/09/11 00:53:38;;;;;;;7.67;4.37;;;17.90;94.80;;;;;;4989589;28;20952;-61
2023/09/11 00:56:05;;;;;;;6.33;4.30;;;17.90;94.70;;;;;;4981956;28;20485;-63
2023/09/11 00:58:32;;;;;;;8.03;4.43;;;17.80;94.50;;;;;;4995029;28;20477;-61
2023/09/11 01:00:59;;;;;;;8.93;4.37;;;17.80;94.70;;;;;;4988730;28;20485;-62
2023/09/11 01:03:26;;;;;;;8.37;4.00;;;17.70;95.00;;;;;;4989277;28;20481;-62
2023/09/11 01:05:55;;;;;;;5.20;3.80;;;17.70;95.10;;;;;;4989426;28;20705;-61
2023/09/11 01:08:22;;;;;;;9.40;5.10;;;17.60;95.10;;;;;;4980938;28;20500;-63
2023/09/11 01:10:50;;;;;;;10.90;4.33;;;17.60;94.50;;;;;;4999431;28;20477;-63
2023/09/11 01:13:17;;;;;;;5.90;4.37;;;17.60;95.20;;;;;;4981654;28;20484;-62
2023/09/11 01:15:49;;;;;;;7.67;4.23;;;17.50;95.30;;;;;;4999051;28;20473;-62
2023/09/11 01:18:23;;;;;;;7.77;4.33;;;17.50;95.30;;;;;;4988208;28;20481;-62
2023/09/11 01:21:11;;;;;;;13.67;4.87;;;17.50;95.40;;;;;;4993824;28;20472;-63
2023/09/11 01:23:59;;;;;;;4.77;4.20;;;17.40;95.70;;;;;;4978863;28;20485;-62
2023/09/11 01:26:52;;;;;;;4.43;3.60;;;17.40;95.80;;;;;;4992670;28;20474;-63
2023/09/11 01:29:25;;;;;;;7.70;3.60;;;17.40;95.50;;;;;;4981395;28;20918;-63
2023/09/11 01:31:54;;;;;;;11.27;3.83;;;17.40;95.20;;;;;;4994955;28;20478;-64
2023/09/11 01:34:21;;;;;;;5.07;3.83;;;17.30;95.10;;;;;;4981805;28;21075;-64
2023/09/11 01:36:47;;;;;;;4.97;3.63;;;17.30;95.00;;;;;;4988030;28;20489;-64
2023/09/11 01:39:15;;;;;;;5.40;3.97;;;17.30;95.00;;;;;;4992243;28;20511;-65
2023/09/11 01:41:45;;;;;;;6.47;3.90;;;17.30;95.30;;;;;;4992764;28;20749;-65
2023/09/11 01:44:18;;;;;;;5.43;3.60;;;17.20;95.80;;;;;;4988115;28;20466;-65
2023/09/11 01:46:48;;;;;;;5.70;4.53;;;17.00;96.50;;;;;;4987309;28;20884;-65
2023/09/11 01:49:17;;;;;;;8.67;4.53;;;16.90;97.10;;;;;;4989108;28;20846;-65
2023/09/11 01:51:44;;;;;;;4.60;3.53;;;16.70;97.10;;;;;;4990718;28;20845;-65
2023/09/11 01:54:12;;;;;;;8.20;4.63;;;16.80;96.60;;;;;;4988745;28;21058;-64
2023/09/11 01:56:39;;;;;;;5.67;4.20;;;16.70;96.60;;;;;;4990933;28;20489;-65
2023/09/11 01:59:06;;;;;;;5.90;4.27;;;16.60;96.60;;;;;;4994196;28;21051;-65
2023/09/11 02:01:33;;;;;;;6.83;4.83;;;16.60;96.50;;;;;;4981901;28;20622;-65
2023/09/11 02:04:01;;;;;;;7.87;5.07;;;16.60;96.90;;;;;;4991478;28;20481;-64
2023/09/11 02:06:28;;;;;;;9.00;4.80;;;16.60;96.90;;;;;;4988189;28;20481;-64
2023/09/11 02:08:55;;;;;;;6.00;4.10;;;16.70;96.60;;;;;;4993502;28;22229;-64
2023/09/11 02:11:23;;;;;;;5.70;3.17;;;16.70;96.10;;;;;;4989321;28;20912;-64
2023/09/11 02:13:49;;;;;;;5.73;4.30;;;16.80;95.90;;;;;;4985762;28;20589;-65
2023/09/11 02:16:16;;;;;;;8.10;4.13;;;16.80;95.70;;;;;;5006107;28;20478;-66
2023/09/11 02:18:43;;;;;;;10.80;4.00;;;16.90;95.50;;;;;;4995930;28;21247;-65
2023/09/11 02:21:11;;;;;;;6.93;4.20;;;16.80;95.40;;;;;;4996398;28;20530;-65
2023/09/11 02:23:38;;;;;;;11.10;4.20;;;16.90;95.30;;;;;;4992645;28;20486;-65
2023/09/11 02:26:04;;;;;;;4.93;3.43;;;16.80;95.30;;;;;;4994167;28;20478;-65
2023/09/11 02:28:32;;;;;;;6.20;4.63;;;16.90;95.30;;;;;;4989997;28;20531;-65
2023/09/11 02:30:59;;;;;;;6.83;4.97;;;16.70;95.70;;;;;;4992627;28;20597;-65
2023/09/11 02:33:25;;;;;;;4.23;3.83;;;16.60;96.10;;;;;;4996052;28;20520;-65
2023/09/11 02:35:53;;;;;;;11.73;4.30;;;16.50;96.20;;;;;;4991558;28;20480;-65
2023/09/11 02:38:22;;;;;;;7.53;4.50;;;16.50;96.30;;;;;;4986796;28;20473;-64
2023/09/11 02:40:49;;;;;;;4.60;4.20;;;16.50;96.20;;;;;;4985180;28;20479;-65
2023/09/11 02:43:15;;;;;;;9.60;3.57;;;16.40;96.10;;;;;;4980010;28;20488;-64
2023/09/11 02:45:43;;;;;;;7.13;4.20;;;16.30;96.10;;;;;;5000581;28;20510;-64
2023/09/11 02:48:10;;;;;;;14.13;4.27;;;16.20;96.70;;;;;;4985064;28;20569;-64
2023/09/11 02:50:37;;;;;;;8.83;5.33;;;16.20;97.10;;;;;;5000016;28;20489;-64
2023/09/11 02:53:06;;;;;;;4.73;3.63;;;16.20;97.10;;;;;;4995659;28;20489;-65
2023/09/11 02:55:34;;;;;;;9.50;3.77;;;16.30;97.10;;;;;;4990603;28;20514;-65
2023/09/11 02:58:03;;;;;;;6.03;3.80;;;16.30;96.70;;;;;;4985738;28;21058;-65
2023/09/11 03:00:30;;;;;;;6.00;4.23;;;16.40;96.50;;;;;;4990342;28;20477;-64
2023/09/11 03:02:57;;;;;;;10.40;3.73;;;16.40;96.20;;;;;;4996327;28;20542;-61
2023/09/11 03:05:24;;;;;;;4.50;3.63;;;16.40;96.00;;;;;;4994332;28;22484;-62
2023/09/11 03:07:51;;;;;;;9.40;3.90;;;16.40;95.80;;;;;;4982375;28;20493;-62
2023/09/11 03:10:18;;;;;;;4.97;3.60;;;16.40;95.90;;;;;;4989896;28;20480;-62
2023/09/11 03:12:46;;;;;;;9.07;4.57;;;16.40;95.90;;;;;;5005080;28;20478;-62
2023/09/11 03:15:13;;;;;;;11.40;4.20;;;16.40;96.00;;;;;;4987243;28;20552;-62
2023/09/11 03:17:40;;;;;;;5.40;3.50;;;16.40;95.80;;;;;;4958023;28;20481;-61
2023/09/11 03:20:08;;;;;;;6.03;3.53;;;16.40;95.70;;;;;;4990315;28;20527;-62
2023/09/11 03:22:35;;;;;;;5.97;4.37;;;16.50;96.00;;;;;;4993004;28;20831;-62
2023/09/11 03:25:01;;;;;;;5.97;4.17;;;16.40;95.50;;;;;;4991107;28;20477;-62
2023/09/11 03:27:28;;;;;;;7.37;3.57;;;16.40;95.50;;;;;;4988755;28;20481;-62
2023/09/11 03:29:56;;;;;;;10.30;3.83;;;16.40;95.50;;;;;;4993230;28;20493;-61
2023/09/11 03:32:23;;;;;;;6.20;3.90;;;16.40;95.60;;;;;;4989681;28;20616;-62
2023/09/11 03:34:53;;;;;;;4.60;3.37;;;16.40;95.60;;;;;;4978945;28;20485;-62
2023/09/11 03:37:20;;;;;;;4.50;3.97;;;16.40;95.80;;;;;;4969087;28;20529;-62
2023/09/11 03:39:47;;;;;;;9.53;4.50;;;16.40;95.70;;;;;;4986905;28;20859;-61
2023/09/11 03:42:14;;;;;;;4.60;3.60;;;16.40;95.70;;;;;;4977363;28;20548;-61
2023/09/11 03:44:40;;;;;;;5.03;3.33;;;16.30;95.60;;;;;;4999285;28;20951;-62
2023/09/11 03:47:08;;;;;;;6.37;3.83;;;16.40;95.50;;;;;;4987778;28;20486;-62
2023/09/11 03:49:35;;;;;;;8.47;4.73;;;16.30;95.40;;;;;;4988184;28;20481;-61
2023/09/11 03:52:02;;;;;;;6.83;4.97;;;16.30;95.30;;;;;;4990454;28;20508;-61
2023/09/11 03:54:28;;;;;;;6.40;3.50;;;16.30;95.70;;;;;;4991492;28;20499;-61
2023/09/11 03:56:55;;;;;;;5.73;3.43;;;16.20;95.80;;;;;;4996769;28;20486;-61
2023/09/11 03:59:22;;;;;;;7.07;3.93;;;16.20;95.90;;;;;;4990505;28;20481;-63
2023/09/11 04:01:49;;;;;;;4.87;4.13;;;16.20;95.90;;;;;;4994878;28;20484;-63
2023/09/11 04:04:17;;;;;;;7.00;3.90;;;16.20;95.80;;;;;;4991660;28;21090;-63
2023/09/11 04:06:45;;;;;;;5.40;3.60;;;16.20;95.60;;;;;;4987228;28;20462;-62
2023/09/11 04:09:12;;;;;;;14.00;3.80;;;16.20;95.60;;;;;;4980436;28;21042;-63
2023/09/11 04:11:39;;;;;;;5.90;4.10;;;16.20;95.60;;;;;;4999164;28;20485;-62
2023/09/11 04:14:05;;;;;;;4.23;3.17;;;16.20;95.90;;;;;;4987529;28;20481;-62
2023/09/11 04:16:32;;;;;;;5.00;3.77;;;16.20;95.80;;;;;;4992314;28;21066;-62
2023/09/11 04:18:59;;;;;;;4.60;3.60;;;16.20;95.50;;;;;;4979773;28;20478;-63
2023/09/11 04:21:27;;;;;;;5.43;3.80;;;16.20;95.40;;;;;;4997766;28;20500;-61
2023/09/11 04:23:54;;;;;;;6.33;4.20;;;16.30;95.70;;;;;;4991366;28;21691;-61
2023/09/11 04:26:21;;;;;;;5.87;3.53;;;16.20;95.90;;;;;;4994957;28;20480;-63
2023/09/11 04:28:48;;;;;;;6.00;4.03;;;16.30;95.90;;;;;;4990748;28;20478;-62
2023/09/11 04:31:15;;;;;;;6.67;3.30;;;16.20;95.60;;;;;;4991372;28;20825;-62
2023/09/11 04:33:41;;;;;;;8.70;4.47;;;16.20;95.50;;;;;;4981905;28;20489;-62
2023/09/11 04:36:09;;;;;;;6.70;4.20;;;16.20;95.70;;;;;;4996433;28;20477;-62
2023/09/11 04:38:37;;;;;;;6.20;4.37;;;16.20;95.40;;;;;;5001779;28;20489;-62
2023/09/11 04:41:03;;;;;;;6.43;3.50;;;16.10;95.50;;;;;;4990458;28;20472;-61
2023/09/11 04:43:30;;;;;;;5.83;3.93;;;16.00;95.60;;;;;;4988414;28;20469;-62
2023/09/11 04:45:57;;;;;;;6.47;4.20;;;15.90;95.60;;;;;;4987778;28;20470;-61
2023/09/11 04:48:23;;;;;;;7.10;4.07;;;15.90;95.70;;;;;;4989070;28;20482;-61
2023/09/11 04:50:50;;;;;;;6.10;4.13;;;15.80;95.60;;;;;;4990300;28;20478;-61
2023/09/11 04:53:17;;;;;;;3.90;3.60;;;15.80;95.70;;;;;;4973302;28;21006;-62
2023/09/11 04:55:45;;;;;;;9.67;4.10;;;15.70;95.80;;;;;;5000920;28;20489;-63
2023/09/11 04:58:12;;;;;;;4.13;3.73;;;15.50;96.10;;;;;;4988988;28;20483;-61
2023/09/11 05:00:38;;;;;;;7.37;3.80;;;15.40;96.70;;;;;;4983737;28;20755;-61
2023/09/11 05:03:06;;;;;;;8.73;4.03;;;15.30;97.00;;;;;;4994488;28;20481;-65
2023/09/11 05:05:38;;;;;;;4.30;3.67;;;15.30;97.50;;;;;;4990549;28;20472;-65
2023/09/11 05:08:06;;;;;;;5.97;3.80;;;15.30;97.40;;;;;;4989479;28;20492;-65
2023/09/11 05:10:33;;;;;;;6.37;3.93;;;15.40;97.10;;;;;;4989386;28;20599;-65
2023/09/11 05:13:01;;;;;;;10.90;4.40;;;15.50;97.00;;;;;;4988168;28;20496;-61
2023/09/11 05:15:28;;;;;;;6.47;3.93;;;15.60;96.80;;;;;;4988563;28;20485;-62
2023/09/11 05:17:55;;;;;;;5.60;4.37;;;15.60;96.70;;;;;;4986007;28;20831;-62
2023/09/11 05:20:22;;;;;;;5.43;3.70;;;15.70;96.60;;;;;;4985920;28;20464;-63
2023/09/11 05:22:48;;;;;;;8.63;4.40;;;15.70;96.60;;;;;;4990683;28;20938;-62
2023/09/11 05:25:15;;;;;;;8.80;4.27;;;15.70;96.40;;;;;;4992544;28;20476;-62
2023/09/11 05:27:44;;;;;;;4.30;3.10;;;15.80;96.70;;;;;;4989669;28;20627;-62
2023/09/11 05:30:13;;;;;;;7.83;4.53;;;15.80;96.50;;;;;;4989210;28;20485;-62
2023/09/11 05:32:40;;;;;;;5.73;3.77;;;15.80;96.40;;;;;;4989309;28;20484;-65
2023/09/11 05:35:08;;;;;;;6.33;3.90;;;15.80;96.20;;;;;;4989317;28;21181;-65
2023/09/11 05:37:35;;;;;;;6.63;4.43;;;15.80;96.30;;;;;;4984950;28;20478;-65
2023/09/11 05:40:02;;;;;;;7.43;3.90;;;15.80;96.30;;;;;;4988395;28;20486;-65
2023/09/11 05:42:29;;;;;;;6.40;3.13;;;15.90;96.20;;;;;;4993565;28;20552;-62
2023/09/11 05:44:56;;;;;;;4.63;3.40;;;15.90;96.30;;;;;;4993673;28;21555;-61
2023/09/11 05:47:24;;;;;;;6.53;4.23;;;15.90;96.50;;;;;;4987819;28;20483;-63
2023/09/11 05:49:51;;;;;;;8.60;4.77;;;15.90;96.50;;;;;;4990239;28;20570;-62
2023/09/11 05:52:18;;;;;;;8.30;4.50;;;15.90;96.50;;;;;;4988503;28;20714;-63
2023/09/11 05:54:44;;;;;;;5.53;3.60;;;15.80;96.90;;;;;;4988487;28;20957;-61
2023/09/11 05:57:11;;;;;;;6.33;4.80;;;15.90;96.80;;;;;;4995374;28;20480;-62
2023/09/11 05:59:38;;;;;;;9.50;4.50;;;16.00;96.80;;;;;;4986441;28;20492;-63
2023/09/11 06:02:05;;;;;;;13.70;3.67;;;16.00;96.90;;;;;;4984870;28;20484;-61
2023/09/11 06:04:33;;;;;;;12.33;4.40;;;16.10;97.00;;;;;;4994610;28;20485;-62
2023/09/11 06:07:00;;;;;;;10.83;4.57;;;16.20;97.00;;;;;;4994248;28;21003;-61
2023/09/11 06:09:27;;;;;;;6.33;4.40;;;16.20;97.10;;;;;;4987407;28;20579;-63
2023/09/11 06:11:54;;;;;;;11.03;5.33;;;16.40;97.20;;;;;;4985881;28;20871;-61
2023/09/11 06:14:20;;;;;;;6.80;5.13;;;16.50;97.40;;;;;;4982456;28;20480;-63
2023/09/11 06:16:47;;;;;;;8.73;4.47;;;16.60;97.50;;;;;;4989758;28;20497;-62
2023/09/11 06:19:14;;;;;;;6.73;4.93;;;16.80;97.80;;;;;;4972778;28;21051;-63
2023/09/11 06:21:45;;;;;;;11.40;5.27;;;16.90;97.90;;;;;;5002904;28;20488;-62
2023/09/11 06:24:12;;;;;;;6.20;4.80;;;17.10;98.20;;;;;;4990613;28;20485;-62
2023/09/11 06:26:38;;;;;;;7.43;5.23;;;17.40;98.20;;;;;;4968526;28;20669;-62
2023/09/11 06:29:05;;;;;;;9.17;6.47;;;17.60;98.30;;;;;;4992042;28;21011;-63
2023/09/11 06:31:32;;;;;;;12.57;5.73;;;17.80;98.10;;;;;;4983298;28;20465;-62
2023/09/11 06:33:59;;;;;;;7.70;5.50;;;18.00;98.30;;;;;;4986959;28;20857;-61
2023/09/11 06:36:26;;;;;;;6.80;5.70;;;18.20;98.40;;;;;;4987986;28;20881;-61
2023/09/11 06:38:54;;;;;;;9.23;5.90;;;18.40;98.40;;;;;;4984100;28;21021;-63
2023/09/11 06:41:20;;;;;;;11.77;5.63;;;18.80;99.10;;;;;;4983623;28;20524;-63
2023/09/11 06:43:47;;;;;;;12.23;7.60;;;19.50;99.10;;;;;;4993971;28;20481;-62
2023/09/11 06:46:14;;;;;;;8.40;6.23;;;20.50;98.80;;;;;;4990287;28;20489;-62
2023/09/11 06:48:41;;;;;;;11.53;5.63;;;21.60;97.30;;;;;;4994111;28;20493;-63
2023/09/11 06:51:08;;;;;;;8.13;5.97;;;22.70;95.50;;;;;;4983212;28;20852;-63
2023/09/11 06:53:35;;;;;;;9.90;5.60;;;23.90;94.70;;;;;;4995837;28;20478;-62
2023/09/11 06:56:07;;;;;;;10.33;5.93;;;24.90;93.80;;;;;;4994118;28;20479;-63
2023/09/11 06:58:34;;;;;;;6.30;5.57;;;25.90;92.90;;;;;;4980059;28;20509;-63
2023/09/11 07:01:02;;;;;;;19.03;5.80;;;26.60;91.40;;;;;;5000360;28;20484;-63
2023/09/11 07:03:30;;;;;;;11.83;5.53;;;27.30;90.50;;;;;;4998050;28;20505;-66
2023/09/11 07:05:57;;;;;;;9.83;5.63;;;27.80;89.90;;;;;;4984248;28;21029;-66
2023/09/11 07:08:24;;;;;;;12.40;6.30;;;28.20;89.20;;;;;;4990982;28;20488;-65
2023/09/11 07:10:51;;;;;;;10.53;5.90;;;28.50;89.10;;;;;;4994780;28;20483;-65
2023/09/11 07:13:19;;;;;;;7.50;6.40;;;28.70;88.70;;;;;;4990553;28;21014;-64
2023/09/11 07:15:54;;;;;;;12.40;5.80;;;28.90;88.10;;;;;;4990966;28;20480;-64
2023/09/11 07:18:21;;;;;;;8.07;5.83;;;29.00;88.20;;;;;;4987994;28;20484;-64
2023/09/11 07:20:48;;;;;;;12.70;5.53;;;29.00;88.60;;;;;;4985085;28;20869;-62
2023/09/11 07:23:15;;;;;;;11.83;6.13;;;29.00;88.10;;;;;;4980677;28;20485;-64
2023/09/11 07:25:42;;;;;;;10.57;5.60;;;28.90;88.00;;;;;;5000068;28;20520;-64
2023/09/11 07:28:09;;;;;;;8.77;5.60;;;28.80;88.00;;;;;;4985641;28;20481;-64
2023/09/11 07:30:38;;;;;;;5.63;5.00;;;28.60;86.00;;;;;;4989264;28;21042;-64
2023/09/11 07:33:05;;;;;;;9.73;6.33;;;28.50;86.20;;;;;;4992738;28;20473;-64
2023/09/11 07:35:32;;;;;;;7.20;5.83;;;28.40;86.80;;;;;;4991938;28;20861;-63
2023/09/11 07:37:58;;;;;;;9.90;5.20;;;28.20;87.70;;;;;;4989872;28;20486;-63
2023/09/11 07:40:25;;;;;;;10.50;5.67;;;28.10;87.60;;;;;;4981414;28;20486;-64
2023/09/11 07:42:52;;;;;;;10.87;6.43;;;28.00;89.00;;;;;;4984748;28;20851;-66
2023/09/11 07:45:19;;;;;;;7.17;5.80;;;27.90;88.70;;;;;;4984312;28;20476;-66
2023/09/11 07:47:47;;;;;;;16.10;6.60;;;27.90;89.60;;;;;;4985016;28;20484;-66
2023/09/11 07:50:14;;;;;;;8.20;6.60;;;27.90;89.20;;;;;;4982248;28;20485;-65
2023/09/11 07:52:41;;;;;;;10.17;6.07;;;27.80;90.10;;;;;;4991682;28;21454;-66
2023/09/11 07:55:08;;;;;;;12.30;6.77;;;27.80;90.20;;;;;;4986706;28;20843;-65
2023/09/11 07:57:35;;;;;;;7.33;5.57;;;27.80;90.90;;;;;;4998916;28;20880;-66
2023/09/11 08:00:04;;;;;;;8.87;6.13;;;27.80;90.90;;;;;;4980439;28;20484;-65
2023/09/11 08:02:31;;;;;;;11.23;6.57;;;27.90;90.70;;;;;;4977778;28;20530;-65
2023/09/11 08:04:59;;;;;;;7.90;5.60;;;27.90;90.50;;;;;;4982273;28;20467;-66
2023/09/11 08:07:26;;;;;;;10.27;7.13;;;27.90;91.50;;;;;;4989083;28;20455;-65
2023/09/11 08:09:52;;;;;;;9.97;6.57;;;28.00;91.70;;;;;;4985378;28;20488;-66
2023/09/11 08:12:19;;;;;;;6.90;6.00;;;28.00;90.60;;;;;;4992282;28;20839;-66
2023/09/11 08:14:46;;;;;;;6.00;5.40;;;28.10;91.40;;;;;;4987035;28;20485;-66
2023/09/11 08:17:13;;;;;;;11.40;6.93;;;28.10;92.00;;;;;;4988960;28;20832;-65
2023/09/11 08:19:40;;;;;;;7.50;5.70;;;28.20;91.10;;;;;;4989025;28;20962;-65
2023/09/11 08:22:08;;;;;;;11.07;5.60;;;28.30;91.00;;;;;;4984468;28;20489;-66
2023/09/11 08:24:35;;;;;;;11.50;7.27;;;28.40;90.40;;;;;;4980736;28;20493;-65
2023/09/11 08:27:01;;;;;;;10.97;5.70;;;28.50;90.80;;;;;;4987991;28;20474;-65
2023/09/11 08:29:28;;;;;;;8.43;6.07;;;28.60;91.00;;;;;;4990052;28;20464;-65
2023/09/11 08:31:55;;;;;;;7.13;5.90;;;28.70;91.20;;;;;;4989313;28;20524;-65
2023/09/11 08:34:21;;;;;;;7.20;6.43;;;28.80;91.10;;;;;;4986339;28;20448;-65
2023/09/11 08:36:48;;;;;;;6.43;5.20;;;28.90;91.40;;;;;;5000730;28;20448;-65
2023/09/11 08:39:16;;;;;;;16.57;7.60;;;29.00;91.50;;;;;;4989010;28;20707;-65
2023/09/11 08:41:45;;;;;;;11.70;6.70;;;29.20;91.20;;;;;;4989217;28;20485;-65
2023/09/11 08:44:12;;;;;;;7.60;5.70;;;29.30;90.90;;;;;;4987180;28;20487;-65
2023/09/11 08:46:45;;;;;;;14.20;7.43;;;29.40;90.70;;;;;;4977613;28;20854;-65
2023/09/11 08:49:12;;;;;;;8.90;6.67;;;29.60;90.50;;;;;;5002983;28;20552;-65
2023/09/11 08:51:44;;;;;;;7.80;5.80;;;29.70;90.60;;;;;;4989344;28;20629;-65
2023/09/11 08:54:14;;;;;;;10.63;6.60;;;29.90;90.90;;;;;;4991072;28;20493;-65
2023/09/11 08:56:42;;;;;;;6.43;5.50;;;30.10;90.50;;;;;;4985029;28;21033;-66
2023/09/11 08:59:11;;;;;;;8.70;6.33;;;30.20;90.60;;;;;;4983153;28;20496;-65
2023/09/11 09:01:38;;;;;;;10.00;6.03;;;30.30;90.80;;;;;;4973272;28;20440;-65
2023/09/11 09:04:06;;;;;;;7.73;5.80;;;30.40;90.70;;;;;;4998224;28;20899;-65
2023/09/11 09:06:34;;;;;;;12.07;6.73;;;30.50;90.80;;;;;;4984603;28;20590;-65
2023/09/11 09:09:01;;;;;;;7.87;6.80;;;30.60;90.80;;;;;;4987406;28;20536;-65
2023/09/11 09:11:29;;;;;;;10.10;6.70;;;30.70;90.10;;;;;;4984796;28;20443;-66
2023/09/11 09:13:57;;;;;;;10.60;7.40;;;30.70;89.80;;;;;;4977064;28;20478;-66
2023/09/11 09:16:24;;;;;;;12.53;6.10;;;30.70;89.00;;;;;;4990974;28;20489;-65
2023/09/11 09:18:51;;;;;;;6.67;5.37;;;30.70;88.60;;;;;;4982592;28;20477;-65
2023/09/11 09:21:18;;;;;;;10.53;6.73;;;30.70;89.50;;;;;;4981194;28;20842;-66
2023/09/11 09:23:45;;;;;;;13.17;6.23;;;30.70;90.00;;;;;;4983243;28;20772;-66
2023/09/11 09:26:13;;;;;;;17.60;7.20;;;30.70;90.50;;;;;;4978417;28;20452;-65
2023/09/11 09:28:44;;;;;;;7.83;6.20;;;30.90;90.00;;;;;;5004180;28;20441;-66
2023/09/11 09:31:22;;;;;;;7.13;5.70;;;30.80;88.00;;;;;;4988402;28;20855;-66
2023/09/11 09:33:52;;;;;;;9.03;6.70;;;30.70;87.10;;;;;;4977316;28;20444;-64
2023/09/11 09:36:19;;;;;;;7.40;6.60;;;30.40;87.10;;;;;;4986855;28;20510;-64
2023/09/11 09:38:46;;;;;;;9.63;7.20;;;30.50;90.20;;;;;;4988787;28;20459;-62
2023/09/11 09:41:13;;;;;;;15.83;6.60;;;30.60;89.90;;;;;;4981526;28;20457;-64
2023/09/11 09:43:39;;;;;;;7.53;6.00;;;30.70;87.00;;;;;;4984578;28;20452;-63
2023/09/11 09:46:20;;;;;;;10.60;6.53;;;30.80;90.10;;;;;;4982707;28;20821;-63
2023/09/11 09:49:22;;;;;;;8.43;6.27;;;31.00;89.40;;;;;;4976879;28;20463;-63
2023/09/11 09:51:49;;;;;;;8.43;6.43;;;31.10;88.70;;;;;;4974875;28;20452;-63
2023/09/11 09:54:15;;;;;;;14.80;6.27;;;31.00;88.30;;;;;;4971077;28;20998;-63
2023/09/11 09:56:43;;;;;;;12.10;6.97;;;30.70;87.10;;;;;;4986066;28;20499;-64
2023/09/11 09:59:10;;;;;;;8.00;6.53;;;30.80;88.60;;;;;;4985637;28;20469;-64
2023/09/11 10:01:46;;;;;;;9.13;6.87;;;31.00;90.00;;;;;;4989416;28;21082;-63
2023/09/11 10:04:16;;;;;;;9.60;5.70;;;31.10;89.20;;;;;;4983906;28;20531;-64
2023/09/11 10:06:43;;;;;;;12.40;6.70;;;31.30;87.00;;;;;;4988826;28;21096;-63
2023/09/11 10:09:11;;;;;;;8.80;6.00;;;31.50;87.10;;;;;;4972242;28;20871;-63
2023/09/11 10:11:39;;;;;;;11.87;6.83;;;31.60;86.60;;;;;;4975058;28;20474;-64
2023/09/11 10:14:08;;;;;;;10.50;7.10;;;31.90;89.60;;;;;;4993298;28;20448;-64
2023/09/11 10:16:35;;;;;;;7.80;6.60;;;31.80;85.60;;;;;;4987461;28;20456;-64
2023/09/11 10:19:04;;;;;;;10.03;7.10;;;31.90;85.90;;;;;;4986537;28;20459;-64
2023/09/11 10:21:31;;;;;;;8.63;5.67;;;31.90;83.90;;;;;;4982538;28;20900;-63
2023/09/11 10:23:58;;;;;;;7.30;6.20;;;31.80;82.80;;;;;;4996308;28;21640;-63
2023/09/11 10:26:30;;;;;;;8.60;6.30;;;31.70;81.30;;;;;;4979060;28;20457;-65
2023/09/11 10:29:03;;;;;;;9.07;6.40;;;31.70;85.30;;;;;;4992054;28;20455;-65
2023/09/11 10:31:34;;;;;;;13.00;6.30;;;31.80;86.50;;;;;;4984375;28;20455;-65
2023/09/11 10:34:03;;;;;;;8.43;6.20;;;32.00;82.70;;;;;;4986423;28;21107;-64
2023/09/11 10:36:37;;;;;;;15.00;6.50;;;32.10;83.00;;;;;;4982502;28;20744;-64
2023/09/11 10:39:07;;;;;;;7.77;5.27;;;32.30;85.90;;;;;;4976594;28;20492;-64
2023/09/11 10:41:35;;;;;;;10.37;6.00;;;32.40;88.60;;;;;;4985366;28;20463;-64
2023/09/11 10:44:02;;;;;;;8.70;5.90;;;32.40;85.10;;;;;;4997132;28;20496;-64
2023/09/11 10:46:34;;;;;;;11.80;6.17;;;32.60;84.00;;;;;;5002608;28;20568;-65
2023/09/11 10:49:13;;;;;;;9.63;6.60;;;32.50;82.50;;;;;;4986000;28;20491;-64
2023/09/11 10:51:41;;;;;;;9.20;6.80;;;32.30;81.80;;;;;;4993483;28;20499;-64
2023/09/11 10:54:08;;;;;;;8.00;6.50;;;32.30;83.00;;;;;;5001522;28;20449;-65
2023/09/11 10:56:35;;;;;;;7.47;6.43;;;32.30;81.80;;;;;;4990854;28;20878;-63
2023/09/11 10:59:03;;;;;;;7.43;6.13;;;32.30;80.40;;;;;;4988762;28;20812;-64
2023/09/11 11:01:30;;;;;;;7.00;6.03;;;32.40;81.90;;;;;;4976423;28;20562;-64
2023/09/11 11:03:58;;;;;;;9.50;6.03;;;32.70;84.50;;;;;;4979802;28;20572;-64
2023/09/11 11:06:25;;;;;;;8.93;6.60;;;32.60;80.90;;;;;;4988702;28;20490;-64
2023/09/11 11:08:53;;;;;;;7.43;5.80;;;33.10;86.20;;;;;;4967312;28;20459;-64
2023/09/11 11:11:25;;;;;;;7.10;5.63;;;33.10;79.00;;;;;;5000919;28;20484;-63
2023/09/11 11:14:15;;;;;;;7.90;6.70;;;33.30;81.80;;;;;;4990160;28;20984;-64
2023/09/11 11:17:00;;;;;;;6.83;5.77;;;33.50;82.40;;;;;;4993419;28;21068;-64
2023/09/11 11:19:28;;;;;;;6.80;5.67;;;33.50;80.10;;;;;;4992578;28;20448;-64
2023/09/11 11:21:55;;;;;;;7.87;6.37;;;33.40;79.10;;;;;;4984018;28;20958;-64
2023/09/11 11:24:25;;;;;;;7.13;6.03;;;33.20;78.30;;;;;;4980676;28;20516;-65
2023/09/11 11:26:57;;;;;;;6.67;6.00;;;33.40;81.80;;;;;;4996369;28;20484;-64
2023/09/11 11:29:24;;;;;;;7.63;6.83;;;33.70;84.20;;;;;;4981570;28;20490;-64
2023/09/11 11:31:54;;;;;;;7.13;5.23;;;33.90;81.10;;;;;;4991932;28;20452;-64
2023/09/11 11:34:27;;;;;;;10.23;6.53;;;34.00;77.80;;;;;;4990282;28;20566;-65
2023/09/11 11:36:57;;;;;;;7.70;6.30;;;34.00;74.30;;;;;;4981562;28;20456;-65
2023/09/11 11:39:27;;;;;;;6.53;5.93;;;33.70;73.90;;;;;;4994211;28;20588;-65
2023/09/11 11:41:55;;;;;;;5.70;5.10;;;33.30;74.60;;;;;;4986755;28;20871;-65
2023/09/11 11:44:22;;;;;;;8.47;6.83;;;33.30;78.40;;;;;;4991204;28;20451;-64
2023/09/11 11:46:49;;;;;;;7.20;6.20;;;33.30;81.60;;;;;;4992131;28;20881;-63
2023/09/11 11:49:19;;;;;;;6.90;6.20;;;33.30;77.80;;;;;;4991402;28;20761;-64
2023/09/11 11:51:47;;;;;;;7.33;5.10;;;33.50;78.30;;;;;;4989623;28;20547;-65
2023/09/11 11:54:25;;;;;;;6.53;5.93;;;33.70;75.90;;;;;;4983262;28;20466;-65
2023/09/11 11:56:56;;;;;;;7.03;6.37;;;33.80;75.00;;;;;;4991259;28;20939;-66
2023/09/11 11:59:23;;;;;;;7.60;5.67;;;33.80;72.80;;;;;;4982978;28;20456;-66
2023/09/11 12:01:50;;;;;;;8.37;6.57;;;33.90;73.90;;;;;;4998984;28;20467;-66
2023/09/11 12:04:17;;;;;;;6.87;5.60;;;33.90;73.90;;;;;;4995442;28;21002;-65
2023/09/11 12:06:44;;;;;;;6.43;5.73;;;34.00;75.10;;;;;;4992593;28;20493;-66
2023/09/11 12:09:11;;;;;;;6.53;5.83;;;33.90;72.70;;;;;;4984847;28;20460;-65
2023/09/11 12:11:41;;;;;;;5.27;4.73;;;33.90;72.40;;;;;;4963022;28;20488;-66
2023/09/11 12:14:13;;;;;;;5.70;5.20;;;33.90;71.10;;;;;;4997154;28;20700;-65
2023/09/11 12:16:40;;;;;;;8.03;5.50;;;33.90;72.40;;;;;;4976014;28;20481;-65
2023/09/11 12:19:07;;;;;;;8.60;5.63;;;34.00;74.00;;;;;;4985221;28;20972;-66
2023/09/11 12:21:34;;;;;;;6.50;5.90;;;34.20;73.10;;;;;;4985885;28;20719;-64
2023/09/11 12:24:01;;;;;;;8.80;6.23;;;34.40;72.60;;;;;;4988168;28;20840;-64
2023/09/11 12:26:28;;;;;;;14.40;7.43;;;34.50;72.50;;;;;;4984047;28;20448;-64
2023/09/11 12:28:57;;;;;;;6.50;5.90;;;34.60;75.00;;;;;;4988349;28;20489;-64
2023/09/11 12:31:24;;;;;;;6.40;5.80;;;34.70;75.40;;;;;;4974128;28;20729;-64
2023/09/11 12:33:58;;;;;;;13.40;7.17;;;35.00;77.70;;;;;;4986248;28;20962;-64
2023/09/11 12:36:24;;;;;;;9.70;5.60;;;35.20;71.90;;;;;;4979005;28;20470;-64
2023/09/11 12:38:52;;;;;;;6.60;5.73;;;35.30;73.60;;;;;;4998483;28;20900;-65
2023/09/11 12:41:20;;;;;;;6.73;5.00;;;35.00;71.50;;;;;;4987465;28;21411;-64
2023/09/11 12:43:47;;;;;;;5.97;5.37;;;35.00;72.40;;;;;;4987655;28;20476;-64
2023/09/11 12:46:16;;;;;;;6.03;5.43;;;34.80;72.80;;;;;;4993386;28;20894;-63
2023/09/11 12:48:46;;;;;;;6.67;5.50;;;34.80;71.80;;;;;;4989986;28;20844;-64
2023/09/11 12:51:13;;;;;;;9.43;5.70;;;34.70;72.20;;;;;;4961074;28;20482;-64